Time;durP1;ratioP1;P1;durP2;ratioP2;P2;SDS_P1;SDS_P2;PMS_P1;PMS_P2;Temp;Humidity;BMP_temperature;BMP_pressure;BME280_temperature;BME280_humidity;BME280_pressure;Samples;Min_cycle;Max_cycle;Signal;HPM_P1;HPM_P2
2020/01/01 00:00:06;;;;;;;71.7;47.8;;;;;;;4.79;73.37305;976.6847;;;;
2020/01/01 00:02:31;;;;;;;60.3;41.5;;;;;;;4.76;73.51855;976.6672;;;;
2020/01/01 00:04:55;;;;;;;54.4;39;;;;;;;4.82;73.23926;976.6994;;;;
2020/01/01 00:07:20;;;;;;;72.4;51.4;;;;;;;4.87;73.01563;976.6492;;;;
2020/01/01 00:12:11;;;;;;;72.4;46;;;;;;;4.82;73.06543;976.5703;;;;
2020/01/01 00:14:35;;;;;;;66.5;46;;;;;;;4.82;73.19434;976.6331;;;;
2020/01/01 00:17:00;;;;;;;67.2;43.1;;;;;;;4.84;73.12793;976.6923;;;;
2020/01/01 00:19:25;;;;;;;66.3;44.6;;;;;;;4.86;73.0498;976.7186;;;;
2020/01/01 00:21:50;;;;;;;69.8;48.9;;;;;;;4.98;72.56055;976.7308;;;;
2020/01/01 00:24:16;;;;;;;70.9;50.3;;;;;;;4.95;72.70508;976.725;;;;
2020/01/01 00:26:41;;;;;;;75.9;55.9;;;;;;;4.98;72.64258;976.7339;;;;
2020/01/01 00:29:06;;;;;;;83.1;58.8;;;;;;;5.02;72.27832;976.7904;;;;
2020/01/01 00:31:31;;;;;;;92.1;62.8;;;;;;;4.93;72.65527;976.7978;;;;
2020/01/01 00:33:56;;;;;;;90.1;63.3;;;;;;;4.95;72.66016;976.7972;;;;
2020/01/01 00:36:21;;;;;;;104;74.3;;;;;;;4.89;72.81152;976.7994;;;;
2020/01/01 00:38:46;;;;;;;198.1;137.9;;;;;;;4.91;72.74707;976.8794;;;;
2020/01/01 00:41:11;;;;;;;229.6;155.7;;;;;;;4.92;72.75781;976.9342;;;;
2020/01/01 00:43:36;;;;;;;237.2;162.5;;;;;;;4.94;72.94824;976.9775;;;;
2020/01/01 00:46:01;;;;;;;275.7;192.8;;;;;;;5;72.80762;976.9285;;;;
2020/01/01 00:48:27;;;;;;;279.1;200.3;;;;;;;5.05;72.59668;976.851;;;;
2020/01/01 00:50:52;;;;;;;283.9;199.6;;;;;;;5.07;72.50781;976.8036;;;;
2020/01/01 00:53:17;;;;;;;288.7;205.6;;;;;;;5.1;72.4209;976.877;;;;
2020/01/01 00:55:42;;;;;;;306.2;216.6;;;;;;;5.08;72.77539;976.972;;;;
2020/01/01 00:58:07;;;;;;;286.9;208.1;;;;;;;5;73.22461;977.0503;;;;
2020/01/01 01:00:32;;;;;;;276.9;201.9;;;;;;;4.97;73.28809;977.0195;;;;
2020/01/01 01:03:09;;;;;;;258.7;186.5;;;;;;;4.92;73.47559;977.0567;;;;
2020/01/01 01:05:23;;;;;;;240.3;166.6;;;;;;;4.93;73.60547;977.072;;;;
2020/01/01 01:07:48;;;;;;;218.4;155.6;;;;;;;4.91;73.83398;977.0294;;;;
2020/01/01 01:10:13;;;;;;;201.4;140.9;;;;;;;4.89;74.10742;977.0187;;;;
2020/01/01 01:12:38;;;;;;;200.4;141.3;;;;;;;4.93;74.06641;977.043;;;;
2020/01/01 01:15:03;;;;;;;192.1;136;;;;;;;4.98;73.81152;977.0589;;;;
2020/01/01 01:17:28;;;;;;;183.4;129.9;;;;;;;5.02;73.80762;977.0653;;;;
2020/01/01 01:19:53;;;;;;;189.9;134.5;;;;;;;4.97;74.17871;977.0978;;;;
2020/01/01 01:24:55;;;;;;;169.4;121.9;;;;;;;4.92;74.5166;977.1277;;;;
2020/01/01 01:27:20;;;;;;;147.9;104.1;;;;;;;4.91;74.78223;977.1665;;;;
2020/01/01 01:29:46;;;;;;;144.4;105.3;;;;;;;4.93;74.60059;977.2751;;;;
2020/01/01 01:32:11;;;;;;;127.6;90.2;;;;;;;5.01;74.54297;977.2413;;;;
2020/01/01 01:34:36;;;;;;;126.9;90.9;;;;;;;5.01;74.56934;977.1694;;;;
2020/01/01 01:37:01;;;;;;;116.2;81;;;;;;;5.12;74.18164;977.0898;;;;
2020/01/01 01:39:26;;;;;;;107.4;77.4;;;;;;;5.09;74.30371;977.0928;;;;
2020/01/01 01:41:51;;;;;;;91.3;65.2;;;;;;;5.07;74.5791;977.0883;;;;
2020/01/01 01:44:16;;;;;;;93.3;64.6;;;;;;;5.02;75.11328;977.1347;;;;
2020/01/01 01:46:41;;;;;;;93;66;;;;;;;5.06;75.06348;977.1642;;;;
2020/01/01 01:49:06;;;;;;;87.2;60.2;;;;;;;5.05;75.1084;977.101;;;;
2020/01/01 01:51:31;;;;;;;88.5;62.9;;;;;;;5.06;74.9707;977.0747;;;;
2020/01/01 01:53:56;;;;;;;84.7;61.6;;;;;;;4.97;75.47461;977.055;;;;
2020/01/01 01:56:21;;;;;;;96.4;67.3;;;;;;;5.01;75.27539;976.976;;;;
2020/01/01 01:58:47;;;;;;;87.6;59.5;;;;;;;5.06;74.87793;976.8997;;;;
2020/01/01 02:01:12;;;;;;;85.6;57.6;;;;;;;5.09;74.7334;976.8468;;;;
2020/01/01 02:03:37;;;;;;;84.2;58.7;;;;;;;5.13;74.52051;976.8395;;;;
2020/01/01 02:06:02;;;;;;;91.6;63.6;;;;;;;5.07;74.35938;976.8173;;;;
2020/01/01 02:08:27;;;;;;;94.6;68.4;;;;;;;4.98;74.63086;976.8066;;;;
2020/01/01 02:10:52;;;;;;;95.8;66.5;;;;;;;5.09;74.13086;976.7299;;;;
2020/01/01 02:13:17;;;;;;;105.3;72.6;;;;;;;5.16;74.47852;976.6428;;;;
2020/01/01 02:15:42;;;;;;;101.3;71.8;;;;;;;5.25;75.24609;976.7125;;;;
2020/01/01 02:18:07;;;;;;;111.6;81.4;;;;;;;5.21;73.90918;976.7214;;;;
2020/01/01 02:20:32;;;;;;;124.5;87.7;;;;;;;5.19;73.60449;976.7009;;;;
2020/01/01 02:22:58;;;;;;;119.7;85.7;;;;;;;4.99;74.1123;976.7173;;;;
2020/01/01 02:25:23;;;;;;;116.8;82.7;;;;;;;5.06;73.97363;976.671;;;;
2020/01/01 02:27:48;;;;;;;120.2;84.7;;;;;;;5.08;73.87402;976.6704;;;;
2020/01/01 02:30:13;;;;;;;126.9;88.2;;;;;;;5.04;73.60254;976.7325;;;;
2020/01/01 02:32:38;;;;;;;119.1;84;;;;;;;5.03;73.98145;976.7424;;;;
2020/01/01 02:35:03;;;;;;;114.5;82.3;;;;;;;4.91;74.19238;976.7327;;;;
2020/01/01 02:37:28;;;;;;;119.7;85.6;;;;;;;4.87;74.30078;976.7202;;;;
2020/01/01 02:39:53;;;;;;;119.7;83.4;;;;;;;4.79;74.62402;976.7653;;;;
2020/01/01 02:42:18;;;;;;;116.6;84.3;;;;;;;4.95;74.09473;976.7239;;;;
2020/01/01 02:44:44;;;;;;;121.1;85.8;;;;;;;4.98;73.75195;976.6743;;;;
2020/01/01 02:47:09;;;;;;;123.9;86.7;;;;;;;4.96;73.71387;976.6721;;;;
2020/01/01 02:49:34;;;;;;;117.6;82.9;;;;;;;5.03;73.27637;976.6608;;;;
2020/01/01 02:51:59;;;;;;;115.3;83;;;;;;;5.04;73.56738;976.6954;;;;
2020/01/01 02:54:24;;;;;;;115.2;82.5;;;;;;;5.01;73.36426;976.6404;;;;
2020/01/01 02:56:49;;;;;;;110.5;78.6;;;;;;;4.85;73.38379;976.5697;;;;
2020/01/01 02:59:14;;;;;;;106.4;74.1;;;;;;;4.71;73.94922;976.5597;;;;
2020/01/01 03:01:39;;;;;;;102.4;73.8;;;;;;;4.65;74.38965;976.5123;;;;
2020/01/01 03:04:04;;;;;;;97.2;71.4;;;;;;;4.65;74.43457;976.4916;;;;
2020/01/01 03:06:29;;;;;;;92.3;65.2;;;;;;;4.57;74.5625;976.4817;;;;
2020/01/01 03:08:54;;;;;;;91.4;66.8;;;;;;;4.58;74.65625;976.5251;;;;
2020/01/01 03:11:20;;;;;;;93.6;67.2;;;;;;;4.58;74.74707;976.5389;;;;
2020/01/01 03:13:45;;;;;;;90;65.1;;;;;;;4.51;75;976.5322;;;;
2020/01/01 03:16:10;;;;;;;98.4;68;;;;;;;4.37;75.51855;976.4746;;;;
2020/01/01 03:18:35;;;;;;;89.3;64.9;;;;;;;4.41;75.40918;976.4441;;;;
2020/01/01 03:21:00;;;;;;;93;66.1;;;;;;;4.47;75.24805;976.4041;;;;
2020/01/01 03:23:25;;;;;;;95.7;63.9;;;;;;;4.54;75.07422;976.4147;;;;
2020/01/01 03:26:06;;;;;;;86.1;62.5;;;;;;;4.53;75.08398;976.4514;;;;
2020/01/01 03:28:16;;;;;;;86.2;62.6;;;;;;;4.62;74.93848;976.4373;;;;
2020/01/01 03:30:40;;;;;;;81.9;58.7;;;;;;;4.54;74.84375;976.4679;;;;
2020/01/01 03:33:06;;;;;;;82.6;60.1;;;;;;;4.64;74.52637;976.45;;;;
2020/01/01 03:35:31;;;;;;;84.5;59;;;;;;;4.59;74.79492;976.4275;;;;
2020/01/01 03:37:56;;;;;;;74.2;54.1;;;;;;;4.54;74.91406;976.4533;;;;
2020/01/01 03:40:21;;;;;;;78.2;54.6;;;;;;;4.53;75.00391;976.4216;;;;
2020/01/01 03:42:46;;;;;;;72.9;53.2;;;;;;;4.51;75.18555;976.3655;;;;
2020/01/01 03:45:11;;;;;;;76.3;55.3;;;;;;;4.56;75.125;976.3532;;;;
2020/01/01 03:47:42;;;;;;;76.3;53.1;;;;;;;4.56;74.94043;976.3549;;;;
2020/01/01 03:52:28;;;;;;;75;54.2;;;;;;;4.47;75.30469;976.3026;;;;
2020/01/01 03:54:51;;;;;;;76.7;53.9;;;;;;;4.44;75.47363;976.3549;;;;
2020/01/01 03:57:17;;;;;;;76.1;54;;;;;;;4.43;75.57617;976.3411;;;;
2020/01/01 03:59:42;;;;;;;75.7;54.4;;;;;;;4.31;76.0752;976.3136;;;;
2020/01/01 04:02:29;;;;;;;75.6;54.2;;;;;;;4.4;75.75488;976.3878;;;;
2020/01/01 04:04:53;;;;;;;76.2;55.2;;;;;;;4.48;75.44531;976.404;;;;
2020/01/01 04:07:20;;;;;;;76.7;53.7;;;;;;;4.54;75.08594;976.3672;;;;
2020/01/01 04:09:43;;;;;;;78;55;;;;;;;4.47;75.05176;976.3589;;;;
2020/01/01 04:12:06;;;;;;;75.7;54.1;;;;;;;4.48;75.10938;976.3209;;;;
2020/01/01 04:14:32;;;;;;;74.3;52.9;;;;;;;4.56;74.77832;976.3105;;;;
2020/01/01 04:16:57;;;;;;;78.5;54.4;;;;;;;4.52;74.96875;976.3105;;;;
2020/01/01 04:19:22;;;;;;;73.7;54.1;;;;;;;4.52;74.94531;976.3878;;;;
2020/01/01 04:21:47;;;;;;;73.7;54;;;;;;;4.47;75.20215;976.367;;;;
2020/01/01 04:24:12;;;;;;;76.5;55.6;;;;;;;4.46;75.13184;976.3736;;;;
2020/01/01 04:26:37;;;;;;;75.6;54.9;;;;;;;4.46;75.32617;976.3511;;;;
2020/01/01 04:29:02;;;;;;;77.3;55.5;;;;;;;4.41;75.3877;976.3006;;;;
2020/01/01 04:31:27;;;;;;;79.8;55.2;;;;;;;4.44;75.28809;976.2444;;;;
2020/01/01 04:33:52;;;;;;;76.6;57.2;;;;;;;4.34;75.82617;976.298;;;;
2020/01/01 04:36:18;;;;;;;74.2;55;;;;;;;4.31;76.09668;976.2533;;;;
2020/01/01 04:38:43;;;;;;;78.9;56.2;;;;;;;4.32;75.9834;976.1872;;;;
2020/01/01 04:41:08;;;;;;;80.3;56.8;;;;;;;4.42;75.44727;976.2092;;;;
2020/01/01 04:43:33;;;;;;;77.9;57.1;;;;;;;4.35;75.60938;976.1389;;;;
2020/01/01 04:45:58;;;;;;;81.4;57.4;;;;;;;4.3;75.96777;976.1546;;;;
2020/01/01 04:48:23;;;;;;;78.2;56.1;;;;;;;4.27;75.97461;976.1404;;;;
2020/01/01 04:50:48;;;;;;;77.2;55.6;;;;;;;4.23;75.96875;976.1911;;;;
2020/01/01 04:53:13;;;;;;;76.5;56.5;;;;;;;4.27;75.89453;976.1984;;;;
2020/01/01 04:55:38;;;;;;;82.2;56.6;;;;;;;4.29;75.6416;976.1959;;;;
2020/01/01 04:58:03;;;;;;;76.7;56.5;;;;;;;4.22;75.78125;976.2109;;;;
2020/01/01 05:00:28;;;;;;;76.7;55.7;;;;;;;4.2;75.80078;976.2183;;;;
2020/01/01 05:02:54;;;;;;;79.5;58;;;;;;;4.19;75.55664;976.1613;;;;
2020/01/01 05:05:19;;;;;;;77.1;57.1;;;;;;;4.12;75.73926;976.1272;;;;
2020/01/01 05:07:44;;;;;;;80.9;58.5;;;;;;;4.06;75.64844;976.1083;;;;
2020/01/01 05:10:09;;;;;;;82.3;57.7;;;;;;;3.98;75.68066;976.0881;;;;
2020/01/01 05:12:34;;;;;;;83.3;58.5;;;;;;;3.95;75.65332;976.0943;;;;
2020/01/01 05:14:59;;;;;;;83.4;59.4;;;;;;;3.85;75.87695;976.1139;;;;
2020/01/01 05:17:24;;;;;;;87.3;58.9;;;;;;;3.88;75.62891;976.1511;;;;
2020/01/01 05:19:49;;;;;;;78.9;55.7;;;;;;;3.74;75.60449;976.1453;;;;
2020/01/01 05:22:14;;;;;;;78.6;57.7;;;;;;;3.73;75.36035;976.1715;;;;
2020/01/01 05:24:39;;;;;;;80.6;57.3;;;;;;;3.63;75.40039;976.1818;;;;
2020/01/01 05:27:04;;;;;;;83.8;59;;;;;;;3.57;75.6416;976.2369;;;;
2020/01/01 05:29:29;;;;;;;78.1;57.9;;;;;;;3.47;76.47754;976.2587;;;;
2020/01/01 05:31:54;;;;;;;80.6;58.2;;;;;;;3.48;76.28516;976.2687;;;;
2020/01/01 05:34:20;;;;;;;84.1;59.1;;;;;;;3.43;76.02051;976.1942;;;;
2020/01/01 05:36:45;;;;;;;86.1;60.6;;;;;;;3.31;76.32227;976.258;;;;
2020/01/01 05:39:10;;;;;;;85.3;59.9;;;;;;;3.26;76.47461;976.298;;;;
2020/01/01 05:41:35;;;;;;;85.5;59.6;;;;;;;3.24;76.22754;976.3459;;;;
2020/01/01 05:44:00;;;;;;;79.1;56.8;;;;;;;3.18;75.97656;976.4383;;;;
2020/01/01 05:46:25;;;;;;;79.2;56.6;;;;;;;3.16;75.78711;976.4194;;;;
2020/01/01 05:48:50;;;;;;;78.5;56.4;;;;;;;3.14;75.59961;976.3809;;;;
2020/01/01 05:51:15;;;;;;;79.4;57.1;;;;;;;3.12;75.47168;976.4047;;;;
2020/01/01 05:53:40;;;;;;;79.6;58.3;;;;;;;3.06;75.78125;976.4025;;;;
2020/01/01 05:56:05;;;;;;;80.7;57.8;;;;;;;3.06;76.09277;976.4347;;;;
2020/01/01 05:58:30;;;;;;;82.3;58.7;;;;;;;2.97;76.08887;976.4438;;;;
2020/01/01 06:00:55;;;;;;;85.5;59.3;;;;;;;3.02;76.01563;976.4313;;;;
2020/01/01 06:03:21;;;;;;;79.6;58.5;;;;;;;3.02;75.50879;976.4794;;;;
2020/01/01 06:05:46;;;;;;;77.8;56.9;;;;;;;2.99;75.23926;976.5013;;;;
2020/01/01 06:08:11;;;;;;;75.7;55.7;;;;;;;2.91;75.3291;976.5481;;;;
2020/01/01 06:10:36;;;;;;;78.1;56.5;;;;;;;2.94;75.42773;976.5689;;;;
2020/01/01 06:13:01;;;;;;;81.3;58.6;;;;;;;2.95;75.90137;976.5942;;;;
2020/01/01 06:15:27;;;;;;;82.1;59.2;;;;;;;2.98;76.15918;976.5852;;;;
2020/01/01 06:17:52;;;;;;;81.9;58;;;;;;;3;76.48438;976.5912;;;;
2020/01/01 06:20:17;;;;;;;83.3;61.3;;;;;;;2.95;77.00684;976.6906;;;;
2020/01/01 06:22:42;;;;;;;86.2;61.3;;;;;;;2.9;77.12305;976.7004;;;;
2020/01/01 06:25:25;;;;;;;89.1;63.4;;;;;;;2.97;77.15918;976.6496;;;;
2020/01/01 06:27:50;;;;;;;83.3;60.4;;;;;;;2.99;76.49414;976.6371;;;;
2020/01/01 06:30:16;;;;;;;88.6;62.5;;;;;;;2.99;76.70215;976.6283;;;;
2020/01/01 06:32:41;;;;;;;86.8;63.4;;;;;;;3.02;76.46484;976.5767;;;;
2020/01/01 06:35:06;;;;;;;97.1;68.3;;;;;;;2.99;77.24316;976.5776;;;;
2020/01/01 06:37:31;;;;;;;92.2;64.1;;;;;;;2.95;76.51172;976.5396;;;;
2020/01/01 06:39:56;;;;;;;86.1;61.8;;;;;;;2.88;76.5332;976.4819;;;;
2020/01/01 06:42:21;;;;;;;84.2;61;;;;;;;2.86;76.29785;976.5217;;;;
2020/01/01 06:44:46;;;;;;;91.7;63.4;;;;;;;2.92;76.9082;976.5071;;;;
2020/01/01 06:47:11;;;;;;;87.1;62.4;;;;;;;2.85;77.11523;976.5105;;;;
2020/01/01 06:49:36;;;;;;;88.8;63;;;;;;;2.75;76.83008;976.5087;;;;
2020/01/01 06:52:01;;;;;;;86.3;62.6;;;;;;;2.68;77.43066;976.4562;;;;
2020/01/01 06:54:26;;;;;;;89.6;63.3;;;;;;;2.61;77.34668;976.4508;;;;
2020/01/01 06:56:52;;;;;;;87.2;61;;;;;;;2.65;77.24023;976.427;;;;
2020/01/01 06:59:17;;;;;;;78.5;57.6;;;;;;;2.73;76.79395;976.4059;;;;
2020/01/01 07:01:42;;;;;;;84.3;60.2;;;;;;;2.68;76.8877;976.3771;;;;
2020/01/01 07:04:07;;;;;;;85.5;62.4;;;;;;;2.79;76.25098;976.3283;;;;
2020/01/01 07:06:32;;;;;;;82.7;59.7;;;;;;;2.68;75.99023;976.3683;;;;
2020/01/01 07:08:57;;;;;;;86.3;59.5;;;;;;;2.55;76.12793;976.3809;;;;
2020/01/01 07:11:22;;;;;;;86.4;60.7;;;;;;;2.63;75.6377;976.3992;;;;
2020/01/01 07:13:47;;;;;;;81.8;58.2;;;;;;;2.56;75.48535;976.4451;;;;
2020/01/01 07:16:12;;;;;;;79.1;57.4;;;;;;;2.5;75.51074;976.4899;;;;
2020/01/01 07:18:37;;;;;;;81.4;59.1;;;;;;;2.45;75.43164;976.5333;;;;
2020/01/01 07:21:03;;;;;;;78.8;58.2;;;;;;;2.45;75.23633;976.5662;;;;
2020/01/01 07:26:08;;;;;;;83.4;58.9;;;;;;;2.54;75.28613;976.5842;;;;
2020/01/01 07:28:33;;;;;;;79.4;57.2;;;;;;;2.56;75.10742;976.5776;;;;
2020/01/01 07:30:58;;;;;;;79.6;57.4;;;;;;;2.6;74.87207;976.5556;;;;
2020/01/01 07:33:23;;;;;;;79.1;57.3;;;;;;;2.69;74.32324;976.5527;;;;
2020/01/01 07:35:48;;;;;;;77.6;55.2;;;;;;;2.73;74.02051;976.5337;;;;
2020/01/01 07:38:13;;;;;;;78.8;55.5;;;;;;;2.78;74.07422;976.6047;;;;
2020/01/01 07:40:39;;;;;;;80.4;57.8;;;;;;;2.8;74.40137;976.5994;;;;
2020/01/01 07:43:04;;;;;;;79.6;56.1;;;;;;;2.86;73.61621;976.6133;;;;
2020/01/01 07:45:29;;;;;;;75.1;55.4;;;;;;;2.94;73.30859;976.6548;;;;
2020/01/01 07:47:54;;;;;;;77.2;56;;;;;;;2.99;73.33984;976.7328;;;;
2020/01/01 07:50:19;;;;;;;75.9;57.4;;;;;;;3.06;72.84473;976.7498;;;;
2020/01/01 07:52:44;;;;;;;72.4;55.1;;;;;;;3.1;72.56445;976.839;;;;
2020/01/01 07:55:09;;;;;;;75.6;55.3;;;;;;;3.16;72.2627;976.8585;;;;
2020/01/01 07:57:34;;;;;;;76.6;56.1;;;;;;;3.75;70.55273;976.8309;;;;
2020/01/01 07:59:59;;;;;;;78.1;55.9;;;;;;;4.16;68.4834;976.8384;;;;
2020/01/01 08:02:24;;;;;;;77.7;56.5;;;;;;;4.13;68.81445;976.88;;;;
2020/01/01 08:04:49;;;;;;;78.7;58.2;;;;;;;4.37;67.84766;976.8597;;;;
2020/01/01 08:07:14;;;;;;;96.9;69.2;;;;;;;4.59;68.11523;976.8022;;;;
2020/01/01 08:09:40;;;;;;;90;64.1;;;;;;;5.14;66.06152;976.7957;;;;
2020/01/01 08:12:05;;;;;;;86.3;61.1;;;;;;;5.23;65.68164;976.805;;;;
2020/01/01 08:14:30;;;;;;;86.9;59.7;;;;;;;5.56;64.53906;976.8829;;;;
2020/01/01 08:16:55;;;;;;;86.9;64;;;;;;;5.36;65.59766;976.9564;;;;
2020/01/01 08:19:20;;;;;;;86.5;62;;;;;;;5.71;64.39941;976.9738;;;;
2020/01/01 08:21:45;;;;;;;82.3;61.1;;;;;;;6.05;62.87305;976.9473;;;;
2020/01/01 08:24:10;;;;;;;91.8;67.8;;;;;;;6.06;63.58301;976.9188;;;;
2020/01/01 08:26:35;;;;;;;99.3;70.5;;;;;;;6.36;62.98926;976.9167;;;;
2020/01/01 08:29:00;;;;;;;89.7;65.6;;;;;;;6.5;65.22559;976.9397;;;;
2020/01/01 08:31:25;;;;;;;92.4;69.2;;;;;;;6.67;64.04395;976.936;;;;
2020/01/01 08:33:50;;;;;;;96.8;71.3;;;;;;;6.89;62.18359;977.0171;;;;
2020/01/01 08:36:15;;;;;;;95.3;65.9;;;;;;;7.34;60.71289;977.1019;;;;
2020/01/01 08:38:41;;;;;;;89.7;65.1;;;;;;;8.45;56.72949;977.0471;;;;
2020/01/01 08:41:06;;;;;;;85.5;64.5;;;;;;;10.44;50.72363;977.0673;;;;
2020/01/01 08:43:31;;;;;;;88.9;64.6;;;;;;;10.49;49.91992;977.08;;;;
2020/01/01 08:46:10;;;;;;;87.7;67.8;;;;;;;8.83;54.25781;977.1156;;;;
2020/01/01 08:48:21;;;;;;;88;65.2;;;;;;;7.78;57.75879;977.1553;;;;
2020/01/01 08:50:46;;;;;;;85.5;62.5;;;;;;;7.38;59.31152;977.1661;;;;
2020/01/01 08:53:11;;;;;;;87.5;64.3;;;;;;;6.73;61.47559;977.053;;;;
2020/01/01 08:55:36;;;;;;;86.8;64.9;;;;;;;6.65;62.22949;977.1239;;;;
2020/01/01 08:58:02;;;;;;;87.7;65.3;;;;;;;6.23;63.74707;977.1099;;;;
2020/01/01 09:00:27;;;;;;;85.6;64.8;;;;;;;5.79;65.5127;977.1052;;;;
2020/01/01 09:02:52;;;;;;;84.6;63.3;;;;;;;6.16;64.7793;977.0826;;;;
2020/01/01 09:05:17;;;;;;;87.5;63.5;;;;;;;5.91;65.53027;977.1174;;;;
2020/01/01 09:07:42;;;;;;;90.2;64.9;;;;;;;5.94;65.43164;977.0938;;;;
2020/01/01 09:10:07;;;;;;;86.7;63.5;;;;;;;5.67;66.33984;977.0984;;;;
2020/01/01 09:12:32;;;;;;;86.8;63.3;;;;;;;5.68;66.36621;977.1014;;;;
2020/01/01 09:14:57;;;;;;;84.5;60.7;;;;;;;5.53;66.58496;977.1001;;;;
2020/01/01 09:17:22;;;;;;;84.8;61.7;;;;;;;5.36;67.80762;977.0621;;;;
2020/01/01 09:19:47;;;;;;;84.8;60.6;;;;;;;5.62;66.86523;977.0513;;;;
2020/01/01 09:22:12;;;;;;;85.4;61;;;;;;;5.59;66.84863;977.0594;;;;
2020/01/01 09:24:38;;;;;;;90.3;64.3;;;;;;;5.37;68.00781;977.0511;;;;
2020/01/01 09:27:03;;;;;;;84.2;61.4;;;;;;;5.19;68.56934;977.0891;;;;
2020/01/01 09:29:28;;;;;;;80;58.4;;;;;;;5.26;68.44043;977.0568;;;;
2020/01/01 09:31:53;;;;;;;81.2;57.3;;;;;;;5.33;68.07129;977.0197;;;;
2020/01/01 09:34:18;;;;;;;82.5;59;;;;;;;5.26;68.2666;977.0536;;;;
2020/01/01 09:36:43;;;;;;;82.1;57.8;;;;;;;5.28;68.68652;977.0203;;;;
2020/01/01 09:39:08;;;;;;;81.5;58.4;;;;;;;5.59;67.70801;976.9709;;;;
2020/01/01 09:41:33;;;;;;;78;57;;;;;;;5.33;68.16406;976.9744;;;;
2020/01/01 09:43:58;;;;;;;78.8;57;;;;;;;5.26;68.40723;976.9705;;;;
2020/01/01 09:46:24;;;;;;;76.7;55.8;;;;;;;5.12;68.93848;976.9914;;;;
2020/01/01 09:48:49;;;;;;;71.3;52.4;;;;;;;4.98;69.11426;976.9871;;;;
2020/01/01 09:51:14;;;;;;;77.4;54.1;;;;;;;4.87;70.02148;977.0829;;;;
2020/01/01 09:53:39;;;;;;;70.1;53.3;;;;;;;4.93;70.13574;977.1066;;;;
2020/01/01 09:56:04;;;;;;;75.5;54;;;;;;;5.18;69.33203;977.1456;;;;
2020/01/01 09:58:29;;;;;;;70.3;52.8;;;;;;;5.42;68.20117;977.0581;;;;
2020/01/01 10:00:54;;;;;;;72.3;52;;;;;;;5.31;68.53027;977.0558;;;;
2020/01/01 10:03:19;;;;;;;68.7;50.4;;;;;;;5.24;68.63477;977.0767;;;;
2020/01/01 10:05:44;;;;;;;66;50.6;;;;;;;5.38;68.39063;977.0284;;;;
2020/01/01 10:08:09;;;;;;;69.1;48.9;;;;;;;5.51;68.02832;976.9514;;;;
2020/01/01 10:10:34;;;;;;;66.3;48.4;;;;;;;5.66;67.94922;976.8889;;;;
2020/01/01 10:12:59;;;;;;;62.6;47.3;;;;;;;5.82;67.02441;976.8332;;;;
2020/01/01 10:15:25;;;;;;;62.9;46.9;;;;;;;5.71;67.10059;976.8261;;;;
2020/01/01 10:17:50;;;;;;;61.1;44.9;;;;;;;5.42;67.55273;976.8684;;;;
2020/01/01 10:20:15;;;;;;;61.1;44.9;;;;;;;5.45;68.01855;976.8541;;;;
2020/01/01 10:22:40;;;;;;;57;42.2;;;;;;;5.28;68.56055;976.8467;;;;
2020/01/01 10:25:05;;;;;;;56.9;41.7;;;;;;;5.31;68.29883;976.8226;;;;
2020/01/01 10:27:30;;;;;;;55.3;41.3;;;;;;;5.16;68.8418;976.7606;;;;
2020/01/01 10:29:55;;;;;;;54.7;41.1;;;;;;;5.38;68.02051;976.7419;;;;
2020/01/01 10:32:20;;;;;;;52.7;39.5;;;;;;;5.42;67.90039;976.7022;;;;
2020/01/01 10:34:45;;;;;;;52.1;38.1;;;;;;;5.48;67.59668;976.687;;;;
2020/01/01 10:37:10;;;;;;;51.4;36;;;;;;;5.03;68.54395;976.7092;;;;
2020/01/01 10:39:36;;;;;;;45.4;35;;;;;;;4.99;68.88574;976.681;;;;
2020/01/01 10:42:01;;;;;;;46.8;34.7;;;;;;;4.9;68.83398;976.7252;;;;
2020/01/01 10:44:26;;;;;;;48.3;34.6;;;;;;;4.9;69.18066;976.5921;;;;
2020/01/01 10:46:51;;;;;;;46.6;34.2;;;;;;;4.91;69.38086;976.5585;;;;
2020/01/01 10:49:16;;;;;;;46;34.1;;;;;;;5.08;68.70215;976.4267;;;;
2020/01/01 10:51:41;;;;;;;45.8;34.4;;;;;;;5.07;68.72363;976.4568;;;;
2020/01/01 10:54:06;;;;;;;47.4;34.5;;;;;;;5;69.07129;976.4188;;;;
2020/01/01 10:56:31;;;;;;;45.8;32.8;;;;;;;5.09;68.63477;976.408;;;;
2020/01/01 10:58:56;;;;;;;42.8;33;;;;;;;5.18;68.54492;976.4091;;;;
2020/01/01 11:01:21;;;;;;;45.2;33.3;;;;;;;5.21;68.31836;976.3761;;;;
2020/01/01 11:03:46;;;;;;;44.6;33.4;;;;;;;5.2;67.94434;976.317;;;;
2020/01/01 11:06:11;;;;;;;45.2;33.3;;;;;;;5;68.82813;976.2672;;;;
2020/01/01 11:08:36;;;;;;;46;33.2;;;;;;;4.98;68.91797;976.1686;;;;
2020/01/01 11:11:01;;;;;;;45.5;32.9;;;;;;;5.2;68.46582;976.175;;;;
2020/01/01 11:13:27;;;;;;;44.4;33.9;;;;;;;5.33;68.15137;976.1248;;;;
2020/01/01 11:15:52;;;;;;;43.8;33.6;;;;;;;5.27;68.3623;976.0804;;;;
2020/01/01 11:18:17;;;;;;;47;33.8;;;;;;;5.4;67.76855;976.0775;;;;
2020/01/01 11:20:42;;;;;;;45.6;33.3;;;;;;;5.41;67.80566;976.0262;;;;
2020/01/01 11:23:07;;;;;;;47.6;33.7;;;;;;;5.34;68.17578;975.948;;;;
2020/01/01 11:25:32;;;;;;;44.9;33.6;;;;;;;5.47;67.25879;975.8757;;;;
2020/01/01 11:27:58;;;;;;;46.5;33.8;;;;;;;5.32;67.94238;975.9075;;;;
2020/01/01 11:30:23;;;;;;;46.5;35.2;;;;;;;5.2;68.58105;975.8312;;;;
2020/01/01 11:32:48;;;;;;;49;35.3;;;;;;;5.39;68.32324;975.7921;;;;
2020/01/01 11:35:13;;;;;;;49;36;;;;;;;5.27;68.60547;975.7626;;;;
2020/01/01 11:37:38;;;;;;;45.6;35;;;;;;;5.51;68.16992;975.7605;;;;
2020/01/01 11:40:03;;;;;;;50.1;35.9;;;;;;;5.51;67.41699;975.7734;;;;
2020/01/01 11:42:29;;;;;;;46.4;36.1;;;;;;;5.56;67.81641;975.7416;;;;
2020/01/01 11:44:54;;;;;;;50.9;36.2;;;;;;;5.77;67.71094;975.7769;;;;
2020/01/01 11:47:19;;;;;;;49.1;36.1;;;;;;;5.73;67.39258;975.802;;;;
2020/01/01 11:49:44;;;;;;;45.7;35;;;;;;;5.82;67.36035;975.7623;;;;
2020/01/01 11:52:09;;;;;;;48.7;33.9;;;;;;;5.81;66.96484;975.7192;;;;
2020/01/01 11:54:35;;;;;;;44.6;32.5;;;;;;;6.18;65.66504;975.6909;;;;
2020/01/01 11:57:00;;;;;;;43.8;32.1;;;;;;;6.12;65.80762;975.6617;;;;
2020/01/01 11:59:25;;;;;;;45.5;32;;;;;;;6.25;65.44336;975.6785;;;;
2020/01/01 12:01:58;;;;;;;42.1;31;;;;;;;6.56;63.91211;975.6188;;;;
2020/01/01 12:04:15;;;;;;;40.5;30.8;;;;;;;6.67;63.42969;975.5572;;;;
2020/01/01 12:06:40;;;;;;;39.9;30.5;;;;;;;6.56;63.70215;975.5492;;;;
2020/01/01 12:09:05;;;;;;;42.9;29.8;;;;;;;6.71;63.73633;975.5278;;;;
2020/01/01 12:11:30;;;;;;;41.4;30.7;;;;;;;6.63;63.37598;975.5326;;;;
2020/01/01 12:13:55;;;;;;;40.2;29.5;;;;;;;7.1;62.64258;975.5305;;;;
2020/01/01 12:16:21;;;;;;;39;29.6;;;;;;;7.2;61.82129;975.4792;;;;
2020/01/01 12:18:46;;;;;;;39.3;29.9;;;;;;;7.21;61.21875;975.4059;;;;
2020/01/01 12:21:11;;;;;;;38;29.4;;;;;;;7.09;61.80469;975.3592;;;;
2020/01/01 12:23:36;;;;;;;43;32;;;;;;;7.03;62.08789;975.4214;;;;
2020/01/01 12:26:01;;;;;;;39.9;29.8;;;;;;;7.03;62.29688;975.3438;;;;
2020/01/01 12:28:26;;;;;;;38.8;30.2;;;;;;;7.22;61.55566;975.3409;;;;
2020/01/01 12:30:51;;;;;;;37.2;29.2;;;;;;;7.16;61.05859;975.3261;;;;
2020/01/01 12:33:16;;;;;;;37.9;28.5;;;;;;;7.27;61.06348;975.3152;;;;
2020/01/01 12:35:41;;;;;;;41.4;29.7;;;;;;;7.35;61.02832;975.2406;;;;
2020/01/01 12:38:06;;;;;;;37.6;28.8;;;;;;;7.37;60.54199;975.2745;;;;
2020/01/01 12:40:31;;;;;;;40.2;29.1;;;;;;;7.53;60.55273;975.2427;;;;
2020/01/01 12:42:56;;;;;;;39.9;28.6;;;;;;;7.48;60.60449;975.236;;;;
2020/01/01 12:45:22;;;;;;;38;28.8;;;;;;;7.47;60.10352;975.1711;;;;
2020/01/01 12:47:47;;;;;;;38.4;29.1;;;;;;;7.71;59.71777;975.144;;;;
2020/01/01 12:50:12;;;;;;;39;28.6;;;;;;;7.43;60.55176;975.1164;;;;
2020/01/01 12:52:37;;;;;;;38.1;28.6;;;;;;;7.3;60.94043;975.0226;;;;
2020/01/01 12:55:02;;;;;;;39.5;29.6;;;;;;;7.25;61.24707;974.9691;;;;
2020/01/01 12:57:27;;;;;;;38.6;29;;;;;;;7.55;60.73145;974.9336;;;;
2020/01/01 12:59:52;;;;;;;41;29.3;;;;;;;8.04;59.53027;974.959;;;;
2020/01/01 13:02:17;;;;;;;40.3;29.9;;;;;;;8.33;59.04492;974.8425;;;;
2020/01/01 13:04:42;;;;;;;39.1;29;;;;;;;8.55;58.36328;974.7935;;;;
2020/01/01 13:07:07;;;;;;;39.1;29.4;;;;;;;8.49;58.09961;974.8298;;;;
2020/01/01 13:09:33;;;;;;;37.2;29.4;;;;;;;8.54;58.10742;974.8334;;;;
2020/01/01 13:11:58;;;;;;;39.9;30;;;;;;;8.58;57.86523;974.7695;;;;
2020/01/01 13:14:23;;;;;;;35.7;28.7;;;;;;;8.61;57.49707;974.7637;;;;
2020/01/01 13:16:48;;;;;;;40.3;30.2;;;;;;;8.37;58.06152;974.733;;;;
2020/01/01 13:19:13;;;;;;;36.8;29.3;;;;;;;8.18;58.6875;974.7366;;;;
2020/01/01 13:21:38;;;;;;;36.5;29.1;;;;;;;8.32;58.58984;974.6667;;;;
2020/01/01 13:24:03;;;;;;;37;28.6;;;;;;;8.69;57.60059;974.637;;;;
2020/01/01 13:28:03;;;;;;;38.6;28.6;;;;;;;8.32;58.87012;974.7056;;;;
2020/01/01 13:30:28;;;;;;;38.9;29.5;;;;;;;8.4;58.59961;974.6696;;;;
2020/01/01 13:32:53;;;;;;;36.9;28.4;;;;;;;8.22;59.08887;974.6995;;;;
2020/01/01 13:35:18;;;;;;;38.3;29.1;;;;;;;8.5;58.57813;974.6769;;;;
2020/01/01 13:37:43;;;;;;;40.9;28.7;;;;;;;8.73;58.13086;974.6843;;;;
2020/01/01 13:40:08;;;;;;;40;29.4;;;;;;;8.58;58.12305;974.6769;;;;
2020/01/01 13:42:33;;;;;;;36.5;29;;;;;;;8.6;58.40723;974.6439;;;;
2020/01/01 13:44:58;;;;;;;37.6;28.7;;;;;;;8.15;59.25488;974.6705;;;;
2020/01/01 13:47:23;;;;;;;35.5;28.2;;;;;;;8.33;59.24316;974.6973;;;;
2020/01/01 13:49:49;;;;;;;34.7;27.5;;;;;;;8.17;59.25684;974.7321;;;;
2020/01/01 13:52:14;;;;;;;40.5;29.5;;;;;;;8.09;59.72363;974.757;;;;
2020/01/01 13:54:39;;;;;;;49.6;36.5;;;;;;;8.14;59.87012;974.7656;;;;
2020/01/01 13:57:04;;;;;;;39.8;29.8;;;;;;;8.14;59.97461;974.6961;;;;
2020/01/01 13:59:29;;;;;;;38.9;28.5;;;;;;;8.25;59.40723;974.7844;;;;
2020/01/01 14:01:54;;;;;;;36.1;27.7;;;;;;;8.34;59.31543;974.7424;;;;
2020/01/01 14:04:19;;;;;;;35.1;28.4;;;;;;;8.48;59.03027;974.7501;;;;
2020/01/01 14:06:44;;;;;;;36.3;27.6;;;;;;;8.35;59.27051;974.7653;;;;
2020/01/01 14:09:09;;;;;;;37.8;28.6;;;;;;;8.1;59.75977;974.7453;;;;